createdAt,value
2022-12-23T00:01:53.772Z,12.43
2022-12-23T00:04:21.154Z,12.83
2022-12-23T00:06:48.453Z,11.10
2022-12-23T00:09:15.704Z,11.93
2022-12-23T00:12:11.327Z,10.27
2022-12-23T00:14:56.767Z,12.70
2022-12-23T00:17:24.083Z,8.73
2022-12-23T00:19:51.319Z,10.13
2022-12-23T00:22:18.551Z,7.13
2022-12-23T00:24:45.756Z,10.37
2022-12-23T00:27:13.681Z,10.20
2022-12-23T00:29:40.915Z,8.40
2022-12-23T00:32:08.260Z,8.63
2022-12-23T00:34:35.551Z,8.47
2022-12-23T00:37:02.835Z,9.97
2022-12-23T00:39:52.088Z,6.90
2022-12-23T00:42:41.149Z,10.07
2022-12-23T00:45:15.059Z,7.57
2022-12-23T00:48:00.457Z,13.33
2022-12-23T00:50:28.396Z,9.10
2022-12-23T00:52:55.973Z,8.37
2022-12-23T00:55:23.680Z,12.47
2022-12-23T00:57:51.657Z,7.40
2022-12-23T01:00:19.701Z,9.10
2022-12-23T01:03:16.859Z,14.00
2022-12-23T01:05:44.160Z,8.00
2022-12-23T01:08:12.655Z,6.50
2022-12-23T01:10:40.977Z,7.27
2022-12-23T01:13:08.882Z,7.20
2022-12-23T01:15:36.142Z,7.10
2022-12-23T01:18:03.497Z,11.47
2022-12-23T01:20:30.775Z,6.10
2022-12-23T01:22:58.048Z,10.83
2022-12-23T01:25:25.290Z,8.10
2022-12-23T01:27:52.492Z,5.97
2022-12-23T01:30:20.527Z,5.80
2022-12-23T01:32:47.797Z,7.97
2022-12-23T01:35:15.556Z,7.60
2022-12-23T01:37:42.820Z,6.00
2022-12-23T01:40:10.737Z,6.97
2022-12-23T01:42:43.351Z,5.70
2022-12-23T01:45:16.405Z,7.53
2022-12-23T01:47:49.255Z,4.30
2022-12-23T01:50:20.808Z,6.20
2022-12-23T01:52:51.266Z,9.60
2022-12-23T01:55:22.001Z,12.20
2022-12-23T01:57:49.656Z,6.53
2022-12-23T02:00:35.810Z,5.60
2022-12-23T02:03:22.259Z,12.67
2022-12-23T02:05:51.239Z,4.23
2022-12-23T02:08:37.493Z,10.53
2022-12-23T02:11:27.528Z,5.30
2022-12-23T02:14:24.043Z,6.43
2022-12-23T02:17:01.599Z,7.57
2022-12-23T02:19:49.323Z,9.90
2022-12-23T02:22:39.319Z,10.03
2022-12-23T02:25:25.363Z,14.73
2022-12-23T02:28:05.709Z,3.53
2022-12-23T02:30:42.863Z,5.87
2022-12-23T02:33:40.987Z,6.80
2022-12-23T02:36:22.740Z,5.07
2022-12-23T02:38:59.273Z,10.47
2022-12-23T02:41:31.942Z,12.27
2022-12-23T02:44:08.142Z,12.33
2022-12-23T02:46:41.403Z,11.90
2022-12-23T02:49:11.377Z,8.53
2022-12-23T02:51:42.212Z,10.93
2022-12-23T02:54:13.908Z,5.00
2022-12-23T02:56:46.239Z,5.03
2022-12-23T02:59:17.309Z,4.07
2022-12-23T03:01:47.073Z,11.70
2022-12-23T03:04:15.198Z,3.83
2022-12-23T03:06:45.764Z,4.30
2022-12-23T03:09:21.350Z,6.10
2022-12-23T03:11:56.192Z,7.57
2022-12-23T03:14:47.311Z,6.00
2022-12-23T03:17:29.706Z,4.40
2022-12-23T03:20:06.087Z,5.50
2022-12-23T03:22:38.297Z,10.20
2022-12-23T03:25:12.287Z,5.27
2022-12-23T03:27:42.740Z,7.60
2022-12-23T03:30:13.307Z,2.00
2022-12-23T03:32:46.525Z,8.13
2022-12-23T03:35:19.568Z,4.07
2022-12-23T03:37:50.218Z,3.90
2022-12-23T03:40:22.410Z,5.47
2022-12-23T03:42:56.436Z,7.90
2022-12-23T03:45:38.757Z,5.30
2022-12-23T03:48:13.331Z,1.43
2022-12-23T03:50:42.733Z,1.83
2022-12-23T03:53:14.263Z,2.03
2022-12-23T03:55:46.644Z,4.83
2022-12-23T03:58:21.832Z,2.07
2022-12-23T04:00:57.901Z,3.13
2022-12-23T04:03:36.160Z,2.17
2022-12-23T04:06:09.699Z,1.97
2022-12-23T04:08:38.392Z,3.23
2022-12-23T04:11:06.178Z,1.60
2022-12-23T04:13:33.779Z,2.77
2022-12-23T04:16:02.506Z,2.30
2022-12-23T04:18:30.730Z,5.93
2022-12-23T04:20:58.161Z,15.00
2022-12-23T04:23:25.466Z,20.97
2022-12-23T04:25:52.737Z,35.80
2022-12-23T04:28:20.014Z,29.67
2022-12-23T04:30:47.301Z,25.90
2022-12-23T04:33:14.601Z,32.73
2022-12-23T04:35:42.519Z,22.70
2022-12-23T04:38:09.787Z,13.97
2022-12-23T04:40:37.014Z,8.20
2022-12-23T04:43:04.363Z,12.50
2022-12-23T04:45:33.021Z,7.37
2022-12-23T04:48:00.308Z,10.17
2022-12-23T04:50:27.600Z,12.60
2022-12-23T04:52:55.541Z,12.40
2022-12-23T04:55:22.791Z,12.73
2022-12-23T04:57:50.066Z,13.70
2022-12-23T05:00:18.122Z,11.87
2022-12-23T05:02:45.507Z,8.30
2022-12-23T05:05:12.807Z,6.80
2022-12-23T05:07:40.052Z,8.23
2022-12-23T05:10:09.795Z,5.47
2022-12-23T05:12:37.063Z,5.53
2022-12-23T05:15:04.956Z,4.70
2022-12-23T05:17:32.204Z,10.93
2022-12-23T05:19:59.547Z,11.93
2022-12-23T05:22:26.775Z,14.53
2022-12-23T05:24:54.021Z,7.93
2022-12-23T05:27:21.913Z,4.97
2022-12-23T05:29:49.172Z,1.83
2022-12-23T05:32:16.441Z,7.90
2022-12-23T05:34:43.665Z,10.37
2022-12-23T05:37:10.913Z,2.70
2022-12-23T05:39:38.165Z,2.17
2022-12-23T05:42:06.030Z,18.83
2022-12-23T05:44:34.073Z,2.20
2022-12-23T05:47:01.693Z,5.33
2022-12-23T05:49:28.950Z,4.33
2022-12-23T05:51:56.155Z,6.47
2022-12-23T05:54:23.419Z,3.30
2022-12-23T05:56:50.655Z,15.27
2022-12-23T05:59:19.086Z,4.87
2022-12-23T06:01:47.306Z,2.80
2022-12-23T06:04:14.678Z,5.40
2022-12-23T06:06:41.984Z,1.13
2022-12-23T06:09:09.815Z,1.23
2022-12-23T06:11:37.051Z,1.43
2022-12-23T06:14:06.498Z,1.83
2022-12-23T06:16:33.871Z,1.70
2022-12-23T06:19:02.735Z,0.70
2022-12-23T06:21:29.995Z,3.07
2022-12-23T06:23:57.237Z,1.67
2022-12-23T06:26:24.606Z,1.33
2022-12-23T06:28:52.064Z,1.67
2022-12-23T06:31:19.396Z,1.40
2022-12-23T06:33:46.638Z,3.60
2022-12-23T06:36:14.606Z,1.30
2022-12-23T06:38:41.844Z,1.80
2022-12-23T06:41:09.126Z,1.27
2022-12-23T06:43:36.414Z,1.00
2022-12-23T06:46:03.920Z,3.73
2022-12-23T06:48:31.225Z,7.73
2022-12-23T06:50:58.475Z,5.10
2022-12-23T06:53:26.374Z,4.63
2022-12-23T06:56:00.250Z,5.37
2022-12-23T06:58:27.440Z,3.67
2022-12-23T07:00:54.896Z,5.20
2022-12-23T07:03:22.308Z,5.90
2022-12-23T07:05:50.241Z,9.53
2022-12-23T07:08:17.644Z,6.97
2022-12-23T07:10:45.598Z,5.90
2022-12-23T07:13:12.961Z,6.23
2022-12-23T07:15:40.431Z,8.87
2022-12-23T07:18:08.445Z,6.00
2022-12-23T07:20:35.610Z,5.17
2022-12-23T07:23:02.846Z,4.87
2022-12-23T07:25:30.094Z,7.10
2022-12-23T07:27:57.976Z,5.53
2022-12-23T07:30:25.465Z,2.93
2022-12-23T07:32:52.980Z,5.57
2022-12-23T07:35:20.382Z,6.63
2022-12-23T07:37:52.212Z,3.40
2022-12-23T07:40:19.610Z,2.87
2022-12-23T07:42:49.349Z,3.93
2022-12-23T07:45:17.477Z,8.73
2022-12-23T07:47:44.908Z,3.00
2022-12-23T07:50:12.660Z,6.10
2022-12-23T07:52:40.157Z,2.83
2022-12-23T07:55:08.064Z,2.37
2022-12-23T07:57:37.392Z,2.47
2022-12-23T08:00:06.690Z,3.33
2022-12-23T08:02:34.973Z,6.23
2022-12-23T08:05:02.595Z,3.37
2022-12-23T08:07:29.994Z,5.57
2022-12-23T08:09:57.194Z,1.30
2022-12-23T08:12:24.537Z,1.77
2022-12-23T08:14:52.244Z,2.40
2022-12-23T08:17:20.719Z,2.33
2022-12-23T08:19:49.075Z,3.07
2022-12-23T08:22:16.512Z,2.97
2022-12-23T08:24:43.718Z,1.87
2022-12-23T08:27:11.010Z,2.60
2022-12-23T08:29:40.168Z,10.00
2022-12-23T08:32:07.618Z,2.80
2022-12-23T08:34:35.433Z,6.00
2022-12-23T08:37:03.564Z,1.90
2022-12-23T08:39:30.848Z,2.67
2022-12-23T08:41:58.207Z,2.17
2022-12-23T08:44:27.238Z,2.20
2022-12-23T08:46:54.532Z,3.70
2022-12-23T08:49:22.124Z,4.03
2022-12-23T08:51:49.475Z,3.43
2022-12-23T08:54:19.574Z,4.60
2022-12-23T08:56:46.988Z,4.93
2022-12-23T08:59:19.258Z,10.93
2022-12-23T09:01:48.215Z,10.27
2022-12-23T09:04:15.665Z,4.90
2022-12-23T09:06:43.444Z,3.40
2022-12-23T09:09:13.023Z,2.97
2022-12-23T09:11:41.168Z,2.97
2022-12-23T09:14:09.427Z,2.90
2022-12-23T09:16:36.977Z,1.70
2022-12-23T09:19:04.518Z,2.50
2022-12-23T09:21:31.774Z,2.00
2022-12-23T09:23:59.043Z,3.20
2022-12-23T09:26:27.903Z,2.80
2022-12-23T09:28:56.595Z,2.23
2022-12-23T09:31:27.847Z,1.30
2022-12-23T09:33:59.708Z,1.20
2022-12-23T09:36:26.989Z,1.37
2022-12-23T09:38:55.508Z,2.10
2022-12-23T09:41:33.201Z,1.40
2022-12-23T09:44:14.277Z,1.13
2022-12-23T09:46:47.994Z,1.80
2022-12-23T09:49:17.563Z,1.37
2022-12-23T09:51:45.318Z,1.60
2022-12-23T09:54:18.977Z,1.67
2022-12-23T09:56:51.450Z,1.10
2022-12-23T09:59:42.265Z,4.03
2022-12-23T10:02:21.825Z,1.73
2022-12-23T10:04:58.847Z,1.50
2022-12-23T10:07:35.827Z,1.73
2022-12-23T10:10:13.252Z,1.50
2022-12-23T10:12:44.615Z,1.43
2022-12-23T10:15:22.032Z,0.83
2022-12-23T10:17:53.299Z,2.33
2022-12-23T10:20:29.684Z,1.87
2022-12-23T10:22:58.702Z,1.17
2022-12-23T10:25:32.853Z,1.23
2022-12-23T10:28:00.125Z,1.57
2022-12-23T10:31:05.367Z,2.23
2022-12-23T10:33:24.948Z,2.03
2022-12-23T10:36:04.825Z,4.50
2022-12-23T10:38:47.508Z,7.23
2022-12-23T10:41:29.724Z,2.70
2022-12-23T10:44:16.268Z,1.73
2022-12-23T10:46:53.214Z,2.93
2022-12-23T10:49:29.173Z,3.80
2022-12-23T10:51:59.747Z,2.77
2022-12-23T10:54:32.113Z,2.47
2022-12-23T10:56:59.921Z,6.67
2022-12-23T10:59:29.385Z,3.97
2022-12-23T11:02:05.330Z,2.03
2022-12-23T11:04:35.501Z,1.60
2022-12-23T11:07:42.357Z,2.63
2022-12-23T11:09:54.249Z,2.13
2022-12-23T11:12:23.889Z,10.80
2022-12-23T11:14:53.793Z,2.83
2022-12-23T11:17:26.295Z,1.77
2022-12-23T11:20:11.356Z,1.57
2022-12-23T11:22:48.956Z,1.70
2022-12-23T11:25:31.516Z,2.50
2022-12-23T11:28:02.435Z,1.10
2022-12-23T11:30:31.178Z,3.33
2022-12-23T11:32:59.228Z,2.23
2022-12-23T11:35:28.579Z,3.50
2022-12-23T11:37:57.076Z,2.73
2022-12-23T11:40:27.193Z,1.70
2022-12-23T11:42:57.782Z,2.20
2022-12-23T11:45:27.849Z,2.13
2022-12-23T11:47:55.836Z,1.87
2022-12-23T11:50:30.675Z,3.77
2022-12-23T11:53:09.387Z,2.10
2022-12-23T11:55:37.511Z,1.47
2022-12-23T11:58:05.144Z,2.47
2022-12-23T12:00:40.621Z,2.33
2022-12-23T12:03:16.857Z,1.63
2022-12-23T12:05:51.223Z,1.47
2022-12-23T12:08:22.130Z,2.13
2022-12-23T12:10:53.485Z,2.10
2022-12-23T12:13:27.052Z,2.90
2022-12-23T12:16:03.314Z,2.37
2022-12-23T12:18:30.790Z,3.50
2022-12-23T12:21:04.123Z,3.23
2022-12-23T12:23:45.802Z,3.90
2022-12-23T12:26:20.325Z,2.47
2022-12-23T12:28:51.306Z,2.13
2022-12-23T12:31:25.728Z,1.40
2022-12-23T12:33:57.396Z,2.90
2022-12-23T12:36:36.465Z,1.83
2022-12-23T12:39:04.420Z,3.70
2022-12-23T12:41:37.253Z,2.67
2022-12-23T12:44:22.791Z,2.30
2022-12-23T12:46:55.140Z,2.00
2022-12-23T12:49:30.949Z,1.70
2022-12-23T12:52:07.530Z,1.53
2022-12-23T12:54:41.521Z,1.53
2022-12-23T12:57:14.015Z,2.00
2022-12-23T12:59:42.541Z,2.33
2022-12-23T13:02:31.577Z,12.70
2022-12-23T13:05:20.443Z,5.27
2022-12-23T13:08:00.418Z,4.60
2022-12-23T13:10:39.049Z,4.00
2022-12-23T13:13:18.427Z,6.77
2022-12-23T13:15:50.371Z,29.00
2022-12-23T13:18:27.756Z,4.60
2022-12-23T13:21:01.378Z,3.43
2022-12-23T13:23:43.724Z,2.87
2022-12-23T13:26:21.619Z,2.50
2022-12-23T13:28:59.306Z,2.40
2022-12-23T13:31:40.288Z,3.90
2022-12-23T13:34:26.788Z,2.13
2022-12-23T13:37:01.168Z,1.80
2022-12-23T13:39:40.506Z,2.03
2022-12-23T13:42:13.129Z,1.80
2022-12-23T13:44:40.893Z,1.73
2022-12-23T13:47:15.455Z,2.30
2022-12-23T13:49:59.194Z,2.70
2022-12-23T13:52:43.083Z,2.67
2022-12-23T13:55:19.230Z,6.07
2022-12-23T13:57:54.738Z,3.00
2022-12-23T14:00:29.046Z,2.70
2022-12-23T14:03:19.299Z,3.03
2022-12-23T14:05:49.665Z,7.37
2022-12-23T14:08:26.644Z,9.53
2022-12-23T14:10:56.860Z,11.40
2022-12-23T14:13:27.612Z,7.23
2022-12-23T14:16:30.573Z,7.07
2022-12-23T14:19:31.074Z,14.87
2022-12-23T14:22:12.894Z,11.13
2022-12-23T14:25:13.322Z,20.70
2022-12-23T14:27:51.420Z,13.83
2022-12-23T14:30:25.919Z,16.20
2022-12-23T14:32:57.317Z,24.90
2022-12-23T14:35:46.959Z,29.03
2022-12-23T14:38:28.408Z,37.67
2022-12-23T14:41:35.666Z,30.50
2022-12-23T14:44:17.063Z,14.10
2022-12-23T14:46:56.428Z,10.87
2022-12-23T14:49:40.301Z,7.50
2022-12-23T14:52:47.223Z,4.17
2022-12-23T14:55:39.171Z,4.37
2022-12-23T14:58:25.445Z,5.07
2022-12-23T15:01:00.331Z,3.30
2022-12-23T15:03:33.674Z,2.93
2022-12-23T15:06:05.876Z,2.53
2022-12-23T15:08:36.689Z,2.53
2022-12-23T15:11:05.178Z,6.83
2022-12-23T15:13:33.123Z,2.97
2022-12-23T15:16:02.217Z,3.03
2022-12-23T15:18:29.817Z,3.10
2022-12-23T15:21:01.820Z,4.47
2022-12-23T15:23:29.482Z,3.47
2022-12-23T15:26:00.636Z,7.07
2022-12-23T15:28:35.948Z,7.53
2022-12-23T15:31:04.833Z,4.90
2022-12-23T15:34:02.404Z,6.60
2022-12-23T15:36:29.898Z,5.70
2022-12-23T15:38:59.379Z,8.10
2022-12-23T15:41:26.688Z,9.97
2022-12-23T15:43:57.711Z,11.50
2022-12-23T15:46:30.242Z,7.73
2022-12-23T15:48:58.515Z,9.77
2022-12-23T15:52:05.197Z,6.17
2022-12-23T15:54:24.038Z,5.80
2022-12-23T15:56:53.832Z,14.60
2022-12-23T15:59:25.200Z,4.80
2022-12-23T16:01:54.122Z,3.57
2022-12-23T16:04:26.180Z,7.93
2022-12-23T16:06:54.233Z,6.33
2022-12-23T16:09:32.913Z,4.27
2022-12-23T16:12:03.319Z,9.80
2022-12-23T16:14:37.193Z,8.00
2022-12-23T16:17:17.603Z,4.60
2022-12-23T16:19:47.001Z,8.80
2022-12-23T16:22:26.532Z,19.80
2022-12-23T16:25:00.288Z,18.10
2022-12-23T16:27:37.096Z,8.63
2022-12-23T16:30:10.948Z,10.47
2022-12-23T16:32:50.855Z,6.73
2022-12-23T16:35:31.532Z,7.00
2022-12-23T16:38:13.277Z,11.60
2022-12-23T16:40:41.143Z,24.13
2022-12-23T16:43:08.715Z,12.80
2022-12-23T16:45:37.714Z,10.30
2022-12-23T16:48:15.401Z,6.50
2022-12-23T16:50:42.832Z,8.73
2022-12-23T16:53:12.757Z,15.67
2022-12-23T16:55:46.218Z,14.33
2022-12-23T16:58:17.741Z,10.37
2022-12-23T17:00:45.427Z,9.00
2022-12-23T17:03:17.176Z,6.33
2022-12-23T17:05:44.936Z,9.70
2022-12-23T17:08:12.210Z,7.80
2022-12-23T17:10:40.926Z,9.03
2022-12-23T17:13:11.516Z,6.50
2022-12-23T17:15:38.878Z,8.40
2022-12-23T17:18:13.011Z,7.23
2022-12-23T17:20:40.922Z,6.60
2022-12-23T17:23:26.003Z,8.07
2022-12-23T17:25:53.330Z,10.97
2022-12-23T17:28:20.911Z,10.47
2022-12-23T17:30:50.745Z,16.90
2022-12-23T17:33:19.801Z,7.77
2022-12-23T17:35:47.402Z,16.50
2022-12-23T17:38:16.172Z,10.97
2022-12-23T17:40:45.429Z,13.43
2022-12-23T17:43:13.619Z,14.57
2022-12-23T17:45:41.407Z,14.70
2022-12-23T17:48:16.293Z,18.07
2022-12-23T17:50:48.614Z,24.10
2022-12-23T17:53:16.684Z,15.83
2022-12-23T17:55:44.354Z,20.00
2022-12-23T17:58:13.254Z,16.13
2022-12-23T18:00:40.860Z,14.93
2022-12-23T18:03:20.041Z,13.23
2022-12-23T18:05:48.181Z,15.60
2022-12-23T18:08:16.238Z,17.77
2022-12-23T18:10:44.128Z,13.13
2022-12-23T18:13:16.915Z,13.07
2022-12-23T18:15:45.101Z,15.50
2022-12-23T18:18:16.786Z,13.73
2022-12-23T18:20:50.668Z,10.10
2022-12-23T18:23:22.261Z,13.23
2022-12-23T18:25:49.624Z,135.13
2022-12-23T18:28:16.927Z,36.60
2022-12-23T18:30:44.382Z,16.70
2022-12-23T18:33:12.473Z,27.10
2022-12-23T18:35:42.305Z,12.50
2022-12-23T18:38:11.013Z,14.53
2022-12-23T18:40:39.275Z,18.07
2022-12-23T18:43:07.075Z,15.63
2022-12-23T18:45:37.252Z,12.40
2022-12-23T18:48:06.890Z,25.37
2022-12-23T18:50:35.489Z,14.73
2022-12-23T18:53:03.251Z,17.80
2022-12-23T18:55:31.465Z,42.93
2022-12-23T18:58:00.222Z,31.07
2022-12-23T19:00:32.819Z,35.30
2022-12-23T19:03:00.387Z,57.70
2022-12-23T19:05:29.368Z,69.07
2022-12-23T19:07:58.475Z,65.67
2022-12-23T19:10:28.616Z,24.60
2022-12-23T19:12:56.875Z,16.40
2022-12-23T19:15:24.258Z,14.20
2022-12-23T19:17:52.139Z,10.83
2022-12-23T19:20:20.673Z,10.07
2022-12-23T19:22:48.731Z,8.80
2022-12-23T19:25:17.834Z,9.20
2022-12-23T19:27:46.265Z,8.37
2022-12-23T19:30:16.726Z,6.43
2022-12-23T19:32:44.327Z,5.70
2022-12-23T19:35:13.522Z,5.70
2022-12-23T19:37:40.860Z,7.20
2022-12-23T19:40:10.003Z,6.13
2022-12-23T19:42:37.736Z,8.90
2022-12-23T19:45:06.377Z,5.17
2022-12-23T19:47:34.429Z,7.83
2022-12-23T19:50:02.002Z,6.57
2022-12-23T19:52:29.319Z,6.50
2022-12-23T19:54:56.645Z,7.57
2022-12-23T19:57:24.232Z,8.20
2022-12-23T19:59:51.580Z,12.77
2022-12-23T20:02:19.506Z,11.77
2022-12-23T20:04:47.743Z,7.07
2022-12-23T20:07:15.802Z,6.67
2022-12-23T20:09:43.231Z,6.80
2022-12-23T20:12:10.822Z,8.80
2022-12-23T20:14:39.315Z,9.10
2022-12-23T20:17:06.686Z,12.90
2022-12-23T20:19:34.091Z,11.87
2022-12-23T20:22:02.651Z,9.97
2022-12-23T20:24:32.679Z,7.90
2022-12-23T20:27:00.125Z,9.77
2022-12-23T20:29:27.527Z,8.37
2022-12-23T20:31:54.859Z,15.13
2022-12-23T20:34:22.231Z,9.60
2022-12-23T20:36:49.699Z,10.77
2022-12-23T20:39:17.852Z,30.57
2022-12-23T20:41:45.217Z,7.80
2022-12-23T20:46:59.885Z,8.90
2022-12-23T20:49:27.267Z,11.77
2022-12-23T20:51:54.741Z,14.53
2022-12-23T20:54:29.736Z,10.67
2022-12-23T20:56:59.352Z,13.97
2022-12-23T20:59:26.685Z,16.00
2022-12-23T21:01:54.588Z,14.53
2022-12-23T21:04:22.144Z,13.80
2022-12-23T21:06:49.666Z,11.67
2022-12-23T21:09:17.061Z,13.70
2022-12-23T21:11:46.624Z,10.80
2022-12-23T21:14:15.325Z,13.07
2022-12-23T21:16:43.560Z,11.30
2022-12-23T21:19:18.537Z,10.03
2022-12-23T21:21:46.637Z,14.30
2022-12-23T21:24:14.416Z,15.83
2022-12-23T21:26:41.997Z,14.53
2022-12-23T21:29:11.618Z,15.10
2022-12-23T21:31:40.722Z,17.27
2022-12-23T21:34:08.677Z,11.03
2022-12-23T21:36:38.304Z,10.23
2022-12-23T21:39:06.723Z,10.90
2022-12-23T21:41:36.537Z,11.50
2022-12-23T21:44:04.364Z,9.03
2022-12-23T21:46:32.585Z,14.40
2022-12-23T21:49:00.965Z,10.47
2022-12-23T21:51:36.924Z,17.90
2022-12-23T21:54:07.387Z,9.80
2022-12-23T21:56:34.859Z,9.83
2022-12-23T21:59:04.816Z,10.63
2022-12-23T22:01:33.583Z,13.27
2022-12-23T22:04:01.024Z,6.60
2022-12-23T22:06:31.066Z,10.77
2022-12-23T22:08:58.973Z,6.97
2022-12-23T22:11:27.995Z,8.93
2022-12-23T22:13:56.629Z,4.63
2022-12-23T22:16:26.335Z,6.77
2022-12-23T22:18:55.686Z,3.63
2022-12-23T22:21:24.922Z,7.60
2022-12-23T22:23:53.883Z,5.53
2022-12-23T22:26:25.782Z,6.83
2022-12-23T22:28:54.654Z,5.67
2022-12-23T22:31:27.179Z,8.30
2022-12-23T22:33:55.241Z,7.07
2022-12-23T22:36:22.714Z,8.97
2022-12-23T22:38:52.809Z,7.07
2022-12-23T22:41:20.563Z,7.87
2022-12-23T22:43:48.356Z,13.70
2022-12-23T22:46:17.660Z,13.10
2022-12-23T22:48:45.577Z,13.97
2022-12-23T22:51:16.498Z,15.10
2022-12-23T22:53:44.171Z,12.30
2022-12-23T22:56:12.807Z,4.20
2022-12-23T22:58:40.230Z,3.00
2022-12-23T23:01:16.861Z,1.70
2022-12-23T23:03:44.593Z,1.63
2022-12-23T23:06:14.060Z,3.43
2022-12-23T23:08:42.648Z,3.03
2022-12-23T23:11:10.581Z,2.10
2022-12-23T23:13:37.975Z,1.87
2022-12-23T23:16:05.913Z,1.80
2022-12-23T23:18:33.467Z,1.33
2022-12-23T23:21:01.076Z,2.40
2022-12-23T23:23:29.176Z,1.40
2022-12-23T23:25:56.522Z,4.03
2022-12-23T23:28:23.936Z,4.43
2022-12-23T23:31:09.642Z,4.03
2022-12-23T23:33:39.055Z,2.20
2022-12-23T23:36:07.454Z,3.67
2022-12-23T23:38:35.594Z,1.67
2022-12-23T23:41:03.538Z,2.80
2022-12-23T23:43:30.856Z,2.50
2022-12-23T23:45:58.342Z,2.77
2022-12-23T23:48:25.706Z,1.93
2022-12-23T23:50:53.268Z,3.97
2022-12-23T23:53:20.563Z,4.70
2022-12-23T23:55:48.653Z,7.80
2022-12-23T23:58:15.991Z,2.00
